Time;durP1;ratioP1;P1;durP2;ratioP2;P2;SDS_P1;SDS_P2;PMS_P1;PMS_P2;Temp;Humidity;BMP_temperature;BMP_pressure;BME280_temperature;BME280_humidity;BME280_pressure;Samples;Min_cycle;Max_cycle;Signal;HPM_P1;HPM_P2
2023/01/16 00:00:57;;;;;;;474.43;242.17;;;;;;;;;;4994698;28;20262;-55
2023/01/16 00:03:23;;;;;;;478.43;240.87;;;;;;;;;;4955221;28;20918;-55
2023/01/16 00:05:50;;;;;;;497.07;263.03;;;;;;;;;;4965311;28;20230;-56
2023/01/16 00:08:17;;;;;;;534.53;279.23;;;;;;;;;;4974356;28;20382;-55
2023/01/16 00:10:44;;;;;;;500.43;261.03;;;;;;;;;;4964058;28;20252;-55
2023/01/16 00:13:12;;;;;;;543.03;291.00;;;;;;;;;;4975712;28;20209;-55
2023/01/16 00:15:44;;;;;;;495.47;259.37;;;;;;;;;;4957610;28;20301;-55
2023/01/16 00:18:11;;;;;;;567.27;305.00;;;;;;;;;;4973396;28;20681;-55
2023/01/16 00:20:37;;;;;;;498.93;262.40;;;;;;;;;;5003160;28;20209;-55
2023/01/16 00:23:03;;;;;;;537.27;287.10;;;;;;;;;;4996486;28;20565;-56
2023/01/16 00:25:30;;;;;;;478.77;248.13;;;;;;;;;;4980882;28;20265;-55
2023/01/16 00:27:56;;;;;;;533.13;286.23;;;;;;;;;;4992907;28;20245;-56
2023/01/16 00:30:24;;;;;;;552.80;305.20;;;;;;;;;;4977823;28;20224;-57
2023/01/16 00:32:50;;;;;;;539.37;281.27;;;;;;;;;;4978632;28;20642;-56
2023/01/16 00:35:16;;;;;;;539.50;287.60;;;;;;;;;;4955713;28;20304;-56
2023/01/16 00:37:43;;;;;;;497.40;263.13;;;;;;;;;;4941781;28;20531;-56
2023/01/16 00:40:10;;;;;;;458.17;237.47;;;;;;;;;;4947251;28;20166;-56
2023/01/16 00:42:36;;;;;;;483.53;254.57;;;;;;;;;;4947211;28;20298;-55
2023/01/16 00:45:02;;;;;;;516.70;268.33;;;;;;;;;;4935983;28;20285;-57
2023/01/16 00:47:28;;;;;;;521.13;276.13;;;;;;;;;;4947413;28;20257;-56
2023/01/16 00:49:55;;;;;;;497.40;264.17;;;;;;;;;;4952225;28;20185;-56
2023/01/16 00:52:22;;;;;;;515.93;274.67;;;;;;;;;;4942370;28;20700;-55
2023/01/16 00:54:48;;;;;;;522.93;268.37;;;;;;;;;;4933692;28;20670;-56
2023/01/16 00:57:15;;;;;;;516.20;272.60;;;;;;;;;;4946429;28;20232;-56
2023/01/16 00:59:41;;;;;;;507.27;264.70;;;;;;;;;;4945520;28;20796;-56
2023/01/16 01:02:07;;;;;;;535.77;285.17;;;;;;;;;;4937857;28;20291;-56
2023/01/16 01:04:33;;;;;;;532.30;279.67;;;;;;;;;;4948995;28;20198;-56
2023/01/16 01:07:00;;;;;;;562.70;300.30;;;;;;;;;;4949715;28;21039;-55
2023/01/16 01:09:26;;;;;;;478.90;244.80;;;;;;;;;;4963375;28;20228;-56
2023/01/16 01:11:52;;;;;;;518.57;273.80;;;;;;;;;;4996897;28;20218;-55
2023/01/16 01:14:19;;;;;;;535.93;290.33;;;;;;;;;;4965488;28;20270;-56
2023/01/16 01:16:48;;;;;;;490.97;257.83;;;;;;;;;;5001724;28;20719;-57
2023/01/16 01:19:15;;;;;;;444.73;229.37;;;;;;;;;;5007410;28;20253;-55
2023/01/16 01:21:42;;;;;;;445.37;228.07;;;;;;;;;;5016950;28;20207;-56
2023/01/16 01:24:08;;;;;;;449.40;239.17;;;;;;;;;;4998376;28;20231;-55
2023/01/16 01:26:35;;;;;;;405.47;208.50;;;;;;;;;;4999606;28;20210;-55
2023/01/16 01:29:02;;;;;;;472.50;244.77;;;;;;;;;;4989480;28;20226;-56
2023/01/16 01:31:28;;;;;;;537.33;289.33;;;;;;;;;;4989158;28;20289;-55
2023/01/16 01:33:55;;;;;;;436.27;222.17;;;;;;;;;;4969702;28;20753;-55
2023/01/16 01:36:22;;;;;;;488.20;261.93;;;;;;;;;;4960092;28;20928;-55
2023/01/16 01:38:50;;;;;;;460.23;236.47;;;;;;;;;;4969354;28;20265;-55
2023/01/16 01:41:16;;;;;;;567.80;305.57;;;;;;;;;;4967307;28;20304;-56
2023/01/16 01:43:50;;;;;;;489.90;255.70;;;;;;;;;;4976971;28;20173;-56
2023/01/16 01:46:28;;;;;;;553.00;297.70;;;;;;;;;;4970866;28;20493;-56
2023/01/16 01:48:58;;;;;;;541.80;283.97;;;;;;;;;;4968729;28;20526;-55
2023/01/16 01:51:28;;;;;;;572.87;316.90;;;;;;;;;;4966293;28;20247;-56
2023/01/16 01:53:58;;;;;;;483.57;248.10;;;;;;;;;;4959737;28;20253;-55
2023/01/16 01:56:31;;;;;;;463.33;236.57;;;;;;;;;;4972443;28;20236;-56
2023/01/16 01:59:01;;;;;;;515.77;270.23;;;;;;;;;;4971663;28;20252;-55
2023/01/16 02:01:29;;;;;;;533.60;286.93;;;;;;;;;;4972959;28;20233;-55
2023/01/16 02:03:59;;;;;;;482.37;251.10;;;;;;;;;;4968514;28;20230;-56
2023/01/16 02:06:36;;;;;;;549.13;291.83;;;;;;;;;;4976365;28;20210;-57
2023/01/16 02:09:02;;;;;;;503.73;260.83;;;;;;;;;;4956095;28;20227;-56
2023/01/16 02:11:36;;;;;;;506.50;272.63;;;;;;;;;;4965011;28;20341;-55
2023/01/16 02:14:08;;;;;;;535.73;274.70;;;;;;;;;;4964636;28;20234;-56
2023/01/16 02:19:38;;;;;;;382.90;202.43;;;;;;;;;;4991107;28;20263;-56
2023/01/16 02:22:07;;;;;;;424.63;230.37;;;;;;;;;;4987600;28;20205;-56
2023/01/16 02:24:34;;;;;;;448.43;238.83;;;;;;;;;;5011929;28;20253;-55
2023/01/16 02:27:18;;;;;;;384.13;204.43;;;;;;;;;;4992310;28;20233;-55
2023/01/16 02:30:03;;;;;;;424.57;225.53;;;;;;;;;;5007842;28;21204;-54
2023/01/16 02:32:34;;;;;;;395.27;212.23;;;;;;;;;;4978980;28;20378;-54
2023/01/16 02:35:07;;;;;;;401.73;210.10;;;;;;;;;;4982889;28;20217;-56
2023/01/16 02:37:43;;;;;;;437.23;239.97;;;;;;;;;;4962622;28;20229;-54
2023/01/16 02:40:35;;;;;;;472.10;261.57;;;;;;;;;;4969362;28;20228;-56
2023/01/16 02:43:02;;;;;;;406.70;224.57;;;;;;;;;;4977277;28;20220;-57
2023/01/16 02:45:37;;;;;;;475.27;260.23;;;;;;;;;;4972737;28;20225;-56
2023/01/16 02:48:07;;;;;;;376.93;193.33;;;;;;;;;;4976024;28;20233;-56
2023/01/16 02:50:41;;;;;;;388.70;201.33;;;;;;;;;;4965566;28;20524;-55
2023/01/16 02:53:40;;;;;;;395.47;208.43;;;;;;;;;;4959203;28;20857;-55
2023/01/16 02:56:12;;;;;;;473.37;264.47;;;;;;;;;;4960054;28;20233;-55
2023/01/16 02:58:48;;;;;;;394.37;209.23;;;;;;;;;;4984279;28;20270;-55
2023/01/16 03:01:17;;;;;;;393.83;208.73;;;;;;;;;;4958706;28;20182;-56
2023/01/16 03:03:44;;;;;;;459.63;249.90;;;;;;;;;;4968588;28;20217;-55
2023/01/16 03:06:20;;;;;;;412.10;221.63;;;;;;;;;;4971466;28;20245;-55
2023/01/16 03:08:49;;;;;;;439.47;238.70;;;;;;;;;;4954066;28;20221;-54
2023/01/16 03:11:26;;;;;;;432.70;230.83;;;;;;;;;;4974896;28;20913;-56
2023/01/16 03:14:02;;;;;;;455.47;253.43;;;;;;;;;;4974076;28;20234;-54
2023/01/16 03:16:32;;;;;;;415.80;224.60;;;;;;;;;;4980940;28;20218;-55
2023/01/16 03:18:58;;;;;;;433.23;235.67;;;;;;;;;;4977260;28;20253;-55
2023/01/16 03:21:28;;;;;;;419.63;222.20;;;;;;;;;;4976431;28;20236;-55
2023/01/16 03:24:03;;;;;;;502.43;251.93;;;;;;;;;;5018640;22;20259;-69
2023/01/16 03:26:44;;;;;;;492.60;248.97;;;;;;;;;;5049072;28;20534;-69
2023/01/16 03:29:48;;;;;;;509.73;257.17;;;;;;;;;;5047277;28;20609;-70
2023/01/16 03:32:46;;;;;;;512.10;261.80;;;;;;;;;;5047055;28;20262;-70
2023/01/16 03:35:17;;;;;;;462.50;235.17;;;;;;;;;;4950367;28;20297;-73
2023/01/16 03:37:58;;;;;;;482.40;250.70;;;;;;;;;;4953346;28;20346;-70
2023/01/16 03:40:27;;;;;;;446.63;224.23;;;;;;;;;;4950653;28;20190;-70
2023/01/16 03:43:13;;;;;;;521.53;264.97;;;;;;;;;;4955172;28;20264;-70
2023/01/16 03:46:17;;;;;;;463.40;229.93;;;;;;;;;;5007496;28;20329;-70
2023/01/16 03:48:43;;;;;;;477.03;239.27;;;;;;;;;;4991271;28;20572;-69
2023/01/16 03:51:49;;;;;;;513.90;268.13;;;;;;;;;;5004695;28;20398;-69
2023/01/16 03:54:21;;;;;;;536.73;278.03;;;;;;;;;;4974704;28;20713;-70
2023/01/16 03:56:59;;;;;;;487.20;249.23;;;;;;;;;;4995181;28;20236;-71
2023/01/16 03:59:26;;;;;;;497.07;254.63;;;;;;;;;;5003500;28;20231;-70
2023/01/16 04:02:14;;;;;;;451.47;229.17;;;;;;;;;;4974993;28;20193;-70
2023/01/16 04:05:02;;;;;;;461.33;226.47;;;;;;;;;;5008868;28;20394;-70
2023/01/16 04:07:41;;;;;;;466.97;230.20;;;;;;;;;;5027167;28;20226;-69
2023/01/16 04:10:21;;;;;;;515.77;257.07;;;;;;;;;;5026922;28;20299;-70
2023/01/16 04:12:52;;;;;;;503.00;247.20;;;;;;;;;;5026427;28;20223;-70
2023/01/16 04:15:19;;;;;;;560.93;274.70;;;;;;;;;;5018893;28;20447;-70
2023/01/16 04:17:47;;;;;;;522.77;263.30;;;;;;;;;;5029172;28;20241;-69
2023/01/16 04:20:20;;;;;;;510.77;261.77;;;;;;;;;;5029949;28;20284;-69
2023/01/16 04:22:51;;;;;;;470.90;232.40;;;;;;;;;;5028002;28;20442;-70
2023/01/16 04:25:20;;;;;;;491.33;246.57;;;;;;;;;;5030334;28;20257;-71
2023/01/16 04:27:49;;;;;;;449.00;218.77;;;;;;;;;;5024285;28;20214;-71
2023/01/16 04:30:31;;;;;;;588.60;294.57;;;;;;;;;;5008528;28;20241;-73
2023/01/16 04:32:56;;;;;;;484.00;242.10;;;;;;;;;;5020856;28;20322;-73
2023/01/16 04:35:27;;;;;;;469.03;236.47;;;;;;;;;;5028481;28;20354;-70
2023/01/16 04:37:57;;;;;;;467.47;227.30;;;;;;;;;;5032949;28;20694;-71
2023/01/16 04:40:28;;;;;;;528.43;267.50;;;;;;;;;;5030931;28;20176;-70
2023/01/16 04:42:56;;;;;;;503.03;255.23;;;;;;;;;;5029427;28;20252;-69
2023/01/16 04:45:26;;;;;;;458.67;226.17;;;;;;;;;;5028620;28;20216;-70
2023/01/16 04:47:56;;;;;;;575.17;300.13;;;;;;;;;;5027045;28;20666;-70
2023/01/16 04:50:24;;;;;;;511.00;245.67;;;;;;;;;;5018819;28;20362;-70
2023/01/16 04:52:51;;;;;;;488.67;245.37;;;;;;;;;;5029973;28;20280;-70
2023/01/16 04:55:25;;;;;;;532.57;270.47;;;;;;;;;;5030693;28;20241;-70
2023/01/16 04:57:52;;;;;;;497.53;247.83;;;;;;;;;;5027771;28;20276;-69
2023/01/16 05:00:26;;;;;;;460.93;230.30;;;;;;;;;;5029109;28;20220;-70
2023/01/16 05:02:53;;;;;;;473.27;226.70;;;;;;;;;;5030229;23;20349;31
2023/01/16 05:05:19;;;;;;;459.27;232.13;;;;;;;;;;4976639;28;20237;-70
2023/01/16 05:08:15;;;;;;;504.83;252.67;;;;;;;;;;4991822;28;20186;-69
2023/01/16 05:10:35;;;;;;;472.60;236.77;;;;;;;;;;4962909;28;20187;-70
2023/01/16 05:13:04;;;;;;;455.33;225.90;;;;;;;;;;4964492;28;20279;-69
2023/01/16 05:15:30;;;;;;;495.07;255.03;;;;;;;;;;4947167;28;20401;-69
2023/01/16 05:17:56;;;;;;;535.30;272.53;;;;;;;;;;4959154;28;20288;-69
2023/01/16 05:20:22;;;;;;;484.00;246.90;;;;;;;;;;4970121;28;20223;-69
2023/01/16 05:22:49;;;;;;;431.30;207.17;;;;;;;;;;4964959;28;20598;-69
2023/01/16 05:25:18;;;;;;;450.63;225.77;;;;;;;;;;4943232;28;20249;-69
2023/01/16 05:28:11;;;;;;;490.67;256.23;;;;;;;;;;4949074;28;21141;-69
2023/01/16 05:30:43;;;;;;;519.13;260.20;;;;;;;;;;4940499;28;20228;-69
2023/01/16 05:33:10;;;;;;;479.70;240.43;;;;;;;;;;4945644;28;20224;-69
2023/01/16 05:35:46;;;;;;;400.13;197.43;;;;;;;;;;4965704;28;20203;-69
2023/01/16 05:38:16;;;;;;;428.83;210.73;;;;;;;;;;4946936;28;20264;-69
2023/01/16 05:40:43;;;;;;;420.00;208.17;;;;;;;;;;4950964;28;20265;-69
2023/01/16 05:43:19;;;;;;;456.33;232.13;;;;;;;;;;4959706;28;20482;-69
2023/01/16 05:45:45;;;;;;;381.70;186.53;;;;;;;;;;4976505;28;20229;-69
2023/01/16 05:48:14;;;;;;;447.50;226.53;;;;;;;;;;4979291;28;20235;-69
2023/01/16 05:51:11;;;;;;;375.77;187.43;;;;;;;;;;4960550;28;20385;-70
2023/01/16 05:53:34;;;;;;;413.73;209.17;;;;;;;;;;4961293;28;20226;-70
2023/01/16 05:56:07;;;;;;;400.87;193.27;;;;;;;;;;4961482;28;20227;-69
2023/01/16 05:58:36;;;;;;;391.90;190.80;;;;;;;;;;4986032;28;20198;-69
2023/01/16 06:01:14;;;;;;;440.37;224.80;;;;;;;;;;4972419;28;20483;-69
2023/01/16 06:03:43;;;;;;;455.07;234.70;;;;;;;;;;4972064;28;20278;-69
2023/01/16 06:06:09;;;;;;;424.57;217.00;;;;;;;;;;4999376;28;20366;-70
2023/01/16 06:08:44;;;;;;;448.03;226.27;;;;;;;;;;4968486;28;20254;-69
2023/01/16 06:11:10;;;;;;;402.63;199.13;;;;;;;;;;4975409;28;20700;-70
2023/01/16 06:13:41;;;;;;;470.23;242.27;;;;;;;;;;4998054;28;20214;-69
2023/01/16 06:16:08;;;;;;;453.60;232.13;;;;;;;;;;4981399;28;20259;-67
2023/01/16 06:18:40;;;;;;;391.83;196.73;;;;;;;;;;4964366;28;20215;-69
2023/01/16 06:21:06;;;;;;;396.40;198.63;;;;;;;;;;4961529;28;20215;-70
2023/01/16 06:23:39;;;;;;;450.20;236.23;;;;;;;;;;4955006;28;20237;-69
2023/01/16 06:26:14;;;;;;;424.80;217.93;;;;;;;;;;4923027;28;20227;-70
2023/01/16 06:28:41;;;;;;;462.07;237.90;;;;;;;;;;4951223;28;20253;-70
2023/01/16 06:31:16;;;;;;;453.00;236.37;;;;;;;;;;4965453;28;20609;-70
2023/01/16 06:33:42;;;;;;;418.87;218.07;;;;;;;;;;4962594;28;20592;-70
2023/01/16 06:36:11;;;;;;;372.37;187.03;;;;;;;;;;4945652;28;20215;-72
2023/01/16 06:38:46;;;;;;;441.27;227.20;;;;;;;;;;4954589;28;20561;-71
2023/01/16 06:41:15;;;;;;;380.77;196.43;;;;;;;;;;4983602;28;20206;-71
2023/01/16 06:44:10;;;;;;;436.20;220.20;;;;;;;;;;4989031;28;20265;-70
2023/01/16 06:46:37;;;;;;;519.13;256.03;;;;;;;;;;4968243;28;20240;-67
2023/01/16 06:49:09;;;;;;;486.07;246.40;;;;;;;;;;4959454;28;20546;-67
2023/01/16 06:51:44;;;;;;;558.43;293.00;;;;;;;;;;4952339;28;20654;-66
2023/01/16 06:54:13;;;;;;;489.60;256.77;;;;;;;;;;4972083;28;20230;-67
2023/01/16 06:56:42;;;;;;;442.60;227.17;;;;;;;;;;4980191;28;20303;-67
2023/01/16 06:59:14;;;;;;;451.33;234.83;;;;;;;;;;4989727;28;21198;-68
2023/01/16 07:01:56;;;;;;;;;;;;;;;;;;;;;
2023/01/16 07:04:23;;;;;;;446.17;230.70;;;;;;;;;;4975176;28;20218;-67
2023/01/16 07:06:52;;;;;;;414.30;214.50;;;;;;;;;;4969425;28;20281;-67
2023/01/16 07:10:06;;;;;;;461.10;239.70;;;;;;;;;;4979676;28;20333;-72
2023/01/16 07:12:15;;;;;;;453.83;236.17;;;;;;;;;;4957117;28;20230;-71
2023/01/16 07:26:47;;;;;;;424.20;215.23;;;;;;;;;;4918850;28;20902;-77
2023/01/16 07:29:25;;;;;;;437.13;226.10;;;;;;;;;;4921034;28;21091;-80
2023/01/16 07:32:16;;;;;;;417.30;222.83;;;;;;;;;;4926091;28;20252;-76
2023/01/16 07:34:43;;;;;;;470.40;242.43;;;;;;;;;;4912464;28;20302;-73
2023/01/16 07:37:14;;;;;;;425.70;214.50;;;;;;;;;;4910205;28;21001;-78
2023/01/16 07:39:42;;;;;;;415.30;221.63;;;;;;;;;;4914314;28;20230;-75
2023/01/16 07:42:17;;;;;;;391.67;197.57;;;;;;;;;;4928460;28;20222;-77
2023/01/16 07:44:43;;;;;;;399.23;201.07;;;;;;;;;;4983865;28;20292;-78
2023/01/16 07:47:12;;;;;;;422.57;213.70;;;;;;;;;;4973150;28;20215;-79
2023/01/16 07:49:40;;;;;;;441.00;228.93;;;;;;;;;;4972192;28;20661;-79
2023/01/16 07:52:17;;;;;;;456.80;237.10;;;;;;;;;;4948334;28;20226;-78
2023/01/16 07:54:51;;;;;;;478.07;252.17;;;;;;;;;;4968019;28;20434;-82
2023/01/16 07:57:21;;;;;;;448.37;234.27;;;;;;;;;;4922152;28;20234;-81
2023/01/16 07:59:53;;;;;;;464.50;240.70;;;;;;;;;;4962535;28;20296;-74
2023/01/16 08:02:19;;;;;;;400.60;216.13;;;;;;;;;;4977025;28;20298;-74
2023/01/16 08:05:01;;;;;;;449.27;229.77;;;;;;;;;;5022515;28;20293;-74
2023/01/16 08:07:32;;;;;;;478.80;261.03;;;;;;;;;;4965993;28;20209;-81
2023/01/16 08:10:07;;;;;;;385.87;195.23;;;;;;;;;;4973349;28;20215;-80
2023/01/16 08:12:39;;;;;;;425.63;224.23;;;;;;;;;;5012959;28;20262;-78
2023/01/16 08:15:12;;;;;;;424.23;228.63;;;;;;;;;;4977258;28;20296;-79
2023/01/16 08:17:49;;;;;;;394.43;209.87;;;;;;;;;;4991150;28;20237;-79
2023/01/16 08:20:54;;;;;;;380.30;200.40;;;;;;;;;;4990005;28;20210;-79
2023/01/16 08:23:16;;;;;;;455.90;239.07;;;;;;;;;;4994120;28;20227;-79
2023/01/16 08:26:02;;;;;;;445.47;230.03;;;;;;;;;;4997139;28;20740;-80
2023/01/16 08:28:31;;;;;;;418.83;225.50;;;;;;;;;;4992069;28;20261;-79
2023/01/16 08:31:18;;;;;;;424.13;229.20;;;;;;;;;;4981554;28;20701;-79
2023/01/16 08:33:46;;;;;;;382.20;202.13;;;;;;;;;;4986847;28;20688;-72
2023/01/16 08:36:20;;;;;;;413.50;218.10;;;;;;;;;;4962102;28;20282;-78
2023/01/16 08:38:53;;;;;;;467.97;256.50;;;;;;;;;;4983651;28;20214;-78
2023/01/16 08:52:30;;;;;;;450.20;234.43;;;;;;;;;;4955757;28;20214;-76
2023/01/16 08:55:00;;;;;;;454.97;246.13;;;;;;;;;;4949719;28;20219;-77
2023/01/16 08:57:33;;;;;;;448.47;241.00;;;;;;;;;;4930205;28;20243;-75
2023/01/16 09:00:02;;;;;;;481.93;260.47;;;;;;;;;;4943780;28;20226;-77
2023/01/16 09:02:35;;;;;;;477.03;256.20;;;;;;;;;;4967469;28;20327;-76
2023/01/16 09:05:08;;;;;;;491.33;263.73;;;;;;;;;;4941109;28;20656;-79
2023/01/16 09:07:38;;;;;;;429.17;226.17;;;;;;;;;;4949777;28;20183;-77
2023/01/16 09:10:05;;;;;;;501.13;271.47;;;;;;;;;;4943178;28;20274;-74
2023/01/16 09:15:28;;;;;;;471.67;253.80;;;;;;;;;;4945395;28;20832;-74
2023/01/16 09:17:59;;;;;;;449.30;230.70;;;;;;;;;;4973516;28;20763;-75
2023/01/16 09:20:34;;;;;;;465.47;243.33;;;;;;;;;;4990886;28;20278;-75
2023/01/16 09:23:02;;;;;;;420.53;226.10;;;;;;;;;;4961198;28;20305;-76
2023/01/16 09:25:29;;;;;;;418.33;197.70;;;;;;;;;;4923160;23;20278;-74
2023/01/16 09:28:03;;;;;;;400.07;191.10;;;;;;;;;;4920943;28;20231;-75
2023/01/16 09:30:29;;;;;;;467.17;238.40;;;;;;;;;;4904400;28;21266;-77
2023/01/16 09:32:58;;;;;;;469.40;232.77;;;;;;;;;;4905719;28;20227;-72
2023/01/16 09:35:24;;;;;;;452.30;211.27;;;;;;;;;;4910210;28;20305;-71
2023/01/16 09:37:50;;;;;;;427.90;208.20;;;;;;;;;;4922009;28;20283;-73
2023/01/16 09:40:21;;;;;;;472.20;235.67;;;;;;;;;;4908125;28;20380;-71
2023/01/16 09:45:47;;;;;;;438.57;208.30;;;;;;;;;;4920432;28;20261;-72
2023/01/16 09:48:31;;;;;;;432.17;212.90;;;;;;;;;;4917128;28;20223;-72
2023/01/16 09:51:06;;;;;;;445.27;208.27;;;;;;;;;;4921539;28;20326;-72
2023/01/16 09:58:35;;;;;;;437.00;211.47;;;;;;;;;;4914303;28;20391;-72
2023/01/16 09:59:43;;;;;;;467.83;229.20;;;;;;;;;;4916888;28;20514;-72
2023/01/16 10:02:28;;;;;;;477.03;229.63;;;;;;;;;;4914670;28;20285;-72
2023/01/16 10:05:06;;;;;;;451.83;219.90;;;;;;;;;;4918030;28;21284;-73
2023/01/16 10:07:51;;;;;;;488.90;240.00;;;;;;;;;;4906505;28;20234;-72
2023/01/16 10:10:23;;;;;;;517.73;252.43;;;;;;;;;;4912243;28;21000;-72
2023/01/16 10:13:09;;;;;;;467.90;218.60;;;;;;;;;;4898133;28;20223;-72
2023/01/16 10:15:55;;;;;;;495.70;236.47;;;;;;;;;;4910224;28;20376;-75
2023/01/16 10:19:00;;;;;;;465.60;221.23;;;;;;;;;;4927920;28;20258;-74
2023/01/16 10:21:47;;;;;;;535.30;265.77;;;;;;;;;;4957080;28;20827;-74
2023/01/16 10:24:16;;;;;;;499.63;244.00;;;;;;;;;;4967721;28;20213;-74
2023/01/16 10:27:15;;;;;;;527.87;255.03;;;;;;;;;;4931277;28;20310;-73
2023/01/16 10:29:53;;;;;;;458.53;230.40;;;;;;;;;;4909266;28;20751;-73
2023/01/16 10:32:19;;;;;;;504.80;248.93;;;;;;;;;;4908322;28;20217;-73
2023/01/16 10:34:48;;;;;;;489.00;232.70;;;;;;;;;;4913273;28;20789;-72
2023/01/16 10:37:14;;;;;;;501.83;240.70;;;;;;;;;;4911007;28;20211;-74
2023/01/16 10:39:40;;;;;;;481.13;231.17;;;;;;;;;;4916410;28;20224;-72
2023/01/16 10:50:39;;;;;;;524.43;262.37;;;;;;;;;;4904003;28;20239;-74
2023/01/16 10:53:08;;;;;;;485.57;234.93;;;;;;;;;;4898832;28;20284;-74
2023/01/16 10:55:35;;;;;;;516.07;255.00;;;;;;;;;;4926476;28;20199;-74
2023/01/16 10:58:06;;;;;;;497.63;246.40;;;;;;;;;;4908768;28;20580;-73
2023/01/16 11:00:44;;;;;;;;;;;;;;;;;;;;;
2023/01/16 11:03:16;;;;;;;499.93;249.37;;;;;;;;;;4906939;28;20687;-73
2023/01/16 11:05:57;;;;;;;520.57;259.23;;;;;;;;;;4902440;28;20223;-73
2023/01/16 11:08:25;;;;;;;469.83;232.47;;;;;;;;;;4912324;28;20222;-72
2023/01/16 11:10:57;;;;;;;425.37;210.50;;;;;;;;;;4910509;28;20589;-71
2023/01/16 11:19:27;;;;;;;458.93;226.57;;;;;;;;;;4902842;28;20222;-72
2023/01/16 11:22:07;;;;;;;478.43;240.93;;;;;;;;;;4898133;28;20847;-72
2023/01/16 11:24:34;;;;;;;511.23;255.17;;;;;;;;;;4906289;28;21981;-75
2023/01/16 11:27:00;;;;;;;494.13;242.03;;;;;;;;;;4929874;28;20212;-68
2023/01/16 11:29:30;;;;;;;501.07;261.23;;;;;;;;;;4898646;28;20738;-72
2023/01/16 11:31:58;;;;;;;507.87;255.50;;;;;;;;;;4905779;28;20401;-72
2023/01/16 11:34:28;;;;;;;552.87;291.57;;;;;;;;;;4901610;28;20255;-73
2023/01/16 11:36:56;;;;;;;493.27;240.53;;;;;;;;;;4894511;28;20292;-73
2023/01/16 11:39:25;;;;;;;536.87;271.87;;;;;;;;;;4903565;28;20770;-71
2023/01/16 11:41:55;;;;;;;535.37;262.43;;;;;;;;;;4903509;28;20215;-73
2023/01/16 11:47:15;;;;;;;534.53;263.30;;;;;;;;;;4903051;28;20275;-76
2023/01/16 11:49:47;;;;;;;440.50;214.33;;;;;;;;;;4910722;28;20207;-71
2023/01/16 11:52:26;;;;;;;472.00;240.03;;;;;;;;;;4909093;28;20247;-72
2023/01/16 11:55:02;;;;;;;494.37;261.20;;;;;;;;;;4904450;28;20223;-72
2023/01/16 11:57:37;;;;;;;422.97;214.17;;;;;;;;;;4908479;28;20313;-73
2023/01/16 12:00:23;;;;;;;470.80;239.53;;;;;;;;;;4900039;28;20219;-72
2023/01/16 12:02:52;;;;;;;403.23;204.43;;;;;;;;;;4906528;28;20333;-73
2023/01/16 12:08:08;;;;;;;474.30;241.77;;;;;;;;;;4911740;28;20620;-73
2023/01/16 12:10:41;;;;;;;474.30;241.17;;;;;;;;;;4912522;28;20204;-74
2023/01/16 12:16:18;;;;;;;484.50;245.20;;;;;;;;;;4903258;28;20635;-72
2023/01/16 12:19:06;;;;;;;476.50;233.70;;;;;;;;;;4910014;28;20233;-72
2023/01/16 12:21:49;;;;;;;441.20;229.60;;;;;;;;;;4911969;28;20252;-73
2023/01/16 12:24:38;;;;;;;510.23;263.37;;;;;;;;;;4894986;28;20478;-72
2023/01/16 12:27:27;;;;;;;498.10;255.27;;;;;;;;;;4935034;28;20243;-71
2023/01/16 12:30:05;;;;;;;489.93;248.37;;;;;;;;;;4904062;28;20216;-72
2023/01/16 12:32:59;;;;;;;471.13;241.00;;;;;;;;;;4901464;28;20315;-77
2023/01/16 12:35:42;;;;;;;454.93;226.80;;;;;;;;;;4910248;28;20257;-71
2023/01/16 12:38:11;;;;;;;526.40;280.97;;;;;;;;;;4891275;28;20696;-72
2023/01/16 12:40:48;;;;;;;495.43;246.57;;;;;;;;;;4903748;28;20203;-70
2023/01/16 12:43:19;;;;;;;461.43;230.17;;;;;;;;;;4897097;28;20233;-73
2023/01/16 12:45:57;;;;;;;506.27;245.90;;;;;;;;;;4902398;28;20217;-72
2023/01/16 12:48:31;;;;;;;516.23;257.90;;;;;;;;;;4902816;28;20284;-71
2023/01/16 12:51:12;;;;;;;517.97;270.33;;;;;;;;;;4899200;28;20291;-73
2023/01/16 12:54:00;;;;;;;553.03;288.17;;;;;;;;;;4916609;28;20214;-73
2023/01/16 12:56:29;;;;;;;502.27;254.17;;;;;;;;;;4907408;28;20311;-71
2023/01/16 12:59:01;;;;;;;479.90;243.47;;;;;;;;;;4909313;28;20618;-69
2023/01/16 13:01:38;;;;;;;462.87;223.87;;;;;;;;;;4912754;28;20198;-69
2023/01/16 13:04:12;;;;;;;487.77;241.33;;;;;;;;;;4908068;28;20208;-69
2023/01/16 13:06:41;;;;;;;529.40;277.53;;;;;;;;;;4896246;28;20239;-72
2023/01/16 13:09:19;;;;;;;518.60;264.60;;;;;;;;;;4905008;28;20242;-72
2023/01/16 13:14:44;;;;;;;543.23;284.87;;;;;;;;;;4898410;28;20596;-72
2023/01/16 13:17:13;;;;;;;505.93;262.30;;;;;;;;;;4890661;28;20228;-72
2023/01/16 13:19:40;;;;;;;506.77;250.97;;;;;;;;;;4899343;28;20219;-69
2023/01/16 13:22:06;;;;;;;524.50;276.77;;;;;;;;;;4902266;28;20191;-70
2023/01/16 13:24:35;;;;;;;537.47;277.60;;;;;;;;;;4904277;28;20231;-71
2023/01/16 13:27:08;;;;;;;531.40;271.77;;;;;;;;;;4905763;28;20222;-70
2023/01/16 13:29:38;;;;;;;546.13;289.83;;;;;;;;;;4902158;28;20252;-75
2023/01/16 13:32:10;;;;;;;553.17;283.43;;;;;;;;;;4894116;28;20905;-73
2023/01/16 13:34:41;;;;;;;549.40;274.43;;;;;;;;;;4896456;28;22013;-72
2023/01/16 13:37:26;;;;;;;586.37;312.10;;;;;;;;;;4900751;28;20207;-72
2023/01/16 13:40:14;;;;;;;566.63;293.70;;;;;;;;;;4896188;28;20292;-71
2023/01/16 13:42:47;;;;;;;569.47;301.30;;;;;;;;;;4896271;28;20745;-72
2023/01/16 13:45:47;;;;;;;567.77;299.00;;;;;;;;;;4896796;28;20829;-72
2023/01/16 13:48:14;;;;;;;585.50;302.53;;;;;;;;;;4904362;28;20220;-71
2023/01/16 13:50:47;;;;;;;546.53;278.40;;;;;;;;;;4901016;28;20242;-72
2023/01/16 13:53:13;;;;;;;554.23;268.93;;;;;;;;;;4898416;28;20258;-71
2023/01/16 13:55:42;;;;;;;527.23;257.53;;;;;;;;;;4898448;28;20198;-72
2023/01/16 13:58:28;;;;;;;570.30;287.73;;;;;;;;;;4890636;28;20718;-72
2023/01/16 14:01:15;;;;;;;551.87;271.93;;;;;;;;;;4915954;28;20257;-71
2023/01/16 14:04:01;;;;;;;615.63;319.57;;;;;;;;;;4886570;28;21699;-72
2023/01/16 14:06:29;;;;;;;553.77;283.80;;;;;;;;;;4902291;28;20211;-71
2023/01/16 14:09:19;;;;;;;485.93;233.97;;;;;;;;;;4914667;28;20647;-73
2023/01/16 14:12:05;;;;;;;520.67;258.07;;;;;;;;;;4904792;28;20216;-75
2023/01/16 14:17:23;;;;;;;517.00;251.43;;;;;;;;;;4886877;28;20395;-71
2023/01/16 14:20:05;;;;;;;526.87;265.80;;;;;;;;;;4917768;28;20759;-72
2023/01/16 14:25:14;;;;;;;520.60;259.63;;;;;;;;;;4915575;28;20755;-70
2023/01/16 14:27:43;;;;;;;531.17;268.17;;;;;;;;;;4910314;28;20336;-70
2023/01/16 14:30:18;;;;;;;535.80;271.40;;;;;;;;;;4979407;28;20220;-71
2023/01/16 14:32:49;;;;;;;504.63;251.67;;;;;;;;;;4932285;28;20302;-71
2023/01/16 14:35:17;;;;;;;553.43;289.33;;;;;;;;;;4901420;28;20324;-72
2023/01/16 14:37:45;;;;;;;501.00;251.37;;;;;;;;;;4903225;28;20215;-72
2023/01/16 14:57:30;;;;;;;458.23;224.50;;;;;;;;;;4926567;28;20283;-71
2023/01/16 15:00:25;;;;;;;444.47;219.63;;;;;;;;;;4925432;28;20217;-71
2023/01/16 15:02:57;;;;;;;424.00;208.93;;;;;;;;;;4926012;28;20328;-72
2023/01/16 15:05:51;;;;;;;451.00;229.40;;;;;;;;;;4889785;28;20243;-72
2023/01/16 15:08:39;;;;;;;462.77;233.77;;;;;;;;;;4895240;28;20258;-72
2023/01/16 15:23:02;;;;;;;467.70;242.00;;;;;;;;;;4959202;28;20256;-72
2023/01/16 15:25:47;;;;;;;468.83;215.90;;;;;;;;;;4915781;28;20628;-72
2023/01/16 15:28:21;;;;;;;490.50;234.77;;;;;;;;;;4908183;28;20294;-71
2023/01/16 15:30:54;;;;;;;500.47;236.83;;;;;;;;;;4904834;28;20243;-72
2023/01/16 15:36:15;;;;;;;500.93;226.33;;;;;;;;;;4899970;28;20223;-71
2023/01/16 15:38:44;;;;;;;506.10;227.23;;;;;;;;;;4900870;28;20700;-70
2023/01/16 15:41:11;;;;;;;454.70;212.00;;;;;;;;;;4892607;28;20311;-70
2023/01/16 15:46:43;;;;;;;525.17;225.77;;;;;;;;;;4896429;28;20214;-70
2023/01/16 15:49:19;;;;;;;435.93;197.87;;;;;;;;;;4903750;28;20230;-70
2023/01/16 15:51:51;;;;;;;385.47;173.07;;;;;;;;;;4911423;28;20219;-70
2023/01/16 15:54:18;;;;;;;444.03;202.80;;;;;;;;;;4908085;28;20250;-70
2023/01/16 15:56:44;;;;;;;470.53;211.67;;;;;;;;;;4907766;28;20227;-70
2023/01/16 15:59:28;;;;;;;483.30;217.47;;;;;;;;;;4903485;28;20274;-70
2023/01/16 16:01:57;;;;;;;457.67;209.00;;;;;;;;;;4911390;28;20902;-70
2023/01/16 16:04:23;;;;;;;475.40;212.80;;;;;;;;;;4911153;28;20259;-71
2023/01/16 16:06:49;;;;;;;448.03;204.00;;;;;;;;;;4902013;28;20273;-70
2023/01/16 16:09:21;;;;;;;483.30;227.90;;;;;;;;;;4904403;28;20230;-70